createdAt,value
2023-05-14T00:01:08.060Z,13.56
2023-05-14T00:03:34.648Z,13.50
2023-05-14T00:06:01.086Z,13.46
2023-05-14T00:08:27.530Z,13.41
2023-05-14T00:10:54.056Z,13.41
2023-05-14T00:13:20.460Z,13.36
2023-05-14T00:15:46.968Z,13.38
2023-05-14T00:18:13.367Z,13.39
2023-05-14T00:20:40.553Z,13.38
2023-05-14T00:23:06.939Z,13.33
2023-05-14T00:25:33.310Z,13.30
2023-05-14T00:27:59.780Z,13.29
2023-05-14T00:30:26.278Z,13.26
2023-05-14T00:32:52.847Z,13.22
2023-05-14T00:35:20.461Z,13.23
2023-05-14T00:37:47.390Z,13.22
2023-05-14T00:40:14.298Z,13.20
2023-05-14T00:42:40.899Z,13.17
2023-05-14T00:45:07.761Z,13.13
2023-05-14T00:47:34.845Z,13.08
2023-05-14T00:50:02.566Z,13.05
2023-05-14T00:52:29.094Z,13.01
2023-05-14T00:54:56.761Z,13.01
2023-05-14T00:57:23.170Z,13.00
2023-05-14T00:59:49.746Z,12.97
2023-05-14T01:02:16.165Z,12.95
2023-05-14T01:04:42.696Z,12.94
2023-05-14T01:07:13.235Z,12.90
2023-05-14T01:09:50.026Z,12.88
2023-05-14T01:12:37.255Z,12.82
2023-05-14T01:15:12.609Z,12.78
2023-05-14T01:17:46.102Z,12.74
2023-05-14T01:20:12.767Z,12.72
2023-05-14T01:22:39.241Z,12.71
2023-05-14T01:25:06.594Z,12.68
2023-05-14T01:27:49.827Z,12.65
2023-05-14T01:30:37.513Z,12.65
2023-05-14T01:33:10.326Z,12.64
2023-05-14T01:35:37.301Z,12.63
2023-05-14T01:38:06.762Z,12.58
2023-05-14T01:40:34.621Z,12.57
2023-05-14T01:43:02.441Z,12.52
2023-05-14T01:45:30.941Z,12.51
2023-05-14T01:47:58.006Z,12.50
2023-05-14T01:50:24.657Z,12.46
2023-05-14T01:52:53.396Z,12.43
2023-05-14T01:55:19.857Z,12.41
2023-05-14T01:57:46.273Z,12.41
2023-05-14T02:00:13.006Z,12.36
2023-05-14T02:02:39.492Z,12.35
2023-05-14T02:05:07.159Z,12.34
2023-05-14T02:07:33.869Z,12.34
2023-05-14T02:10:00.330Z,12.33
2023-05-14T02:12:26.917Z,12.32
2023-05-14T02:14:53.394Z,12.30
2023-05-14T02:17:19.936Z,12.27
2023-05-14T02:19:46.456Z,12.23
2023-05-14T02:22:13.138Z,12.20
2023-05-14T02:24:39.632Z,12.16
2023-05-14T02:27:06.339Z,12.14
2023-05-14T02:29:32.752Z,12.13
2023-05-14T02:31:59.202Z,12.11
2023-05-14T02:34:25.986Z,12.07
2023-05-14T02:36:52.421Z,12.05
2023-05-14T02:39:18.840Z,12.02
2023-05-14T02:41:45.194Z,11.98
2023-05-14T02:44:11.570Z,11.98
2023-05-14T02:46:37.973Z,11.98
2023-05-14T02:49:04.414Z,11.96
2023-05-14T02:51:30.762Z,11.92
2023-05-14T02:53:57.132Z,11.92
2023-05-14T02:56:23.503Z,11.90
2023-05-14T02:58:49.863Z,11.89
2023-05-14T03:01:16.567Z,11.87
2023-05-14T03:03:43.409Z,11.86
2023-05-14T03:06:10.377Z,11.83
2023-05-14T03:08:36.836Z,11.81
2023-05-14T03:11:03.430Z,11.77
2023-05-14T03:13:29.927Z,11.75
2023-05-14T03:15:56.899Z,11.75
2023-05-14T03:18:25.714Z,11.73
2023-05-14T03:20:52.115Z,11.71
2023-05-14T03:23:18.533Z,11.69
2023-05-14T03:25:44.959Z,11.67
2023-05-14T03:28:11.411Z,11.65
2023-05-14T03:30:38.061Z,11.64
2023-05-14T03:33:04.653Z,11.62
2023-05-14T03:35:31.519Z,11.62
2023-05-14T03:37:59.229Z,11.62
2023-05-14T03:40:26.193Z,11.59
2023-05-14T03:42:52.703Z,11.59
2023-05-14T03:45:19.277Z,11.58
2023-05-14T03:47:45.720Z,11.58
2023-05-14T03:50:12.179Z,11.57
2023-05-14T03:52:38.604Z,11.56
2023-05-14T03:55:05.402Z,11.55
2023-05-14T03:57:31.859Z,11.54
2023-05-14T03:59:58.452Z,11.55
2023-05-14T04:02:25.205Z,11.54
2023-05-14T04:04:51.801Z,11.54
2023-05-14T04:07:18.523Z,11.54
2023-05-14T04:09:44.896Z,11.50
2023-05-14T04:12:11.652Z,11.54
2023-05-14T04:14:38.052Z,11.54
2023-05-14T04:17:04.618Z,11.55
2023-05-14T04:19:31.346Z,11.55
2023-05-14T04:21:57.754Z,11.55
2023-05-14T04:24:24.206Z,11.54
2023-05-14T04:26:50.630Z,11.56
2023-05-14T04:29:17.066Z,11.58
2023-05-14T04:31:44.728Z,11.58
2023-05-14T04:34:11.158Z,11.57
2023-05-14T04:36:37.557Z,11.59
2023-05-14T04:39:04.134Z,11.58
2023-05-14T04:41:30.652Z,11.61
2023-05-14T04:43:57.141Z,11.62
2023-05-14T04:46:23.685Z,11.65
2023-05-14T04:48:51.363Z,11.69
2023-05-14T04:51:17.760Z,11.73
2023-05-14T04:53:44.190Z,11.74
2023-05-14T04:56:10.811Z,11.76
2023-05-14T04:58:37.204Z,11.82
2023-05-14T05:01:05.782Z,11.90
2023-05-14T05:03:32.685Z,11.93
2023-05-14T05:05:59.168Z,11.97
2023-05-14T05:08:26.294Z,12.03
2023-05-14T05:10:52.719Z,12.08
2023-05-14T05:13:19.227Z,12.17
2023-05-14T05:15:45.849Z,12.23
2023-05-14T05:18:12.326Z,12.27
2023-05-14T05:20:38.776Z,12.30
2023-05-14T05:23:05.381Z,12.35
2023-05-14T05:25:32.222Z,12.39
2023-05-14T05:27:58.560Z,12.39
2023-05-14T05:30:25.092Z,12.40
2023-05-14T05:32:51.835Z,12.43
2023-05-14T05:35:18.523Z,12.47
2023-05-14T05:37:45.397Z,12.50
2023-05-14T05:40:13.992Z,12.57
2023-05-14T05:42:41.074Z,12.63
2023-05-14T05:45:07.968Z,12.70
2023-05-14T05:47:34.664Z,12.75
2023-05-14T05:50:01.090Z,12.74
2023-05-14T05:52:27.500Z,12.76
2023-05-14T05:54:53.903Z,12.77
2023-05-14T05:57:21.775Z,12.76
2023-05-14T05:59:48.146Z,12.79
2023-05-14T06:02:14.569Z,12.84
2023-05-14T06:04:41.082Z,12.87
2023-05-14T06:07:07.452Z,12.90
2023-05-14T06:09:33.850Z,12.95
2023-05-14T06:12:01.409Z,12.97
2023-05-14T06:14:27.808Z,13.02
2023-05-14T06:16:54.338Z,13.07
2023-05-14T06:19:20.821Z,13.09
2023-05-14T06:21:47.216Z,13.22
2023-05-14T06:24:13.648Z,13.32
2023-05-14T06:26:40.252Z,13.50
2023-05-14T06:29:06.648Z,13.65
2023-05-14T06:31:33.038Z,13.75
2023-05-14T06:33:59.421Z,13.83
2023-05-14T06:36:25.979Z,13.95
2023-05-14T06:38:52.384Z,14.11
2023-05-14T06:41:18.755Z,14.24
2023-05-14T06:43:45.129Z,14.31
2023-05-14T06:46:11.636Z,14.47
2023-05-14T06:48:38.105Z,14.48
2023-05-14T06:51:04.569Z,14.55
2023-05-14T06:53:31.533Z,14.65
2023-05-14T06:55:58.003Z,14.71
2023-05-14T06:58:24.394Z,14.76
2023-05-14T07:00:50.824Z,14.89
2023-05-14T07:03:17.240Z,14.93
2023-05-14T07:05:45.970Z,14.95
2023-05-14T07:08:12.495Z,14.93
2023-05-14T07:10:39.213Z,14.91
2023-05-14T07:13:05.957Z,15.06
2023-05-14T07:15:32.546Z,15.18
2023-05-14T07:17:59.032Z,15.33
2023-05-14T07:20:26.049Z,15.38
2023-05-14T07:22:52.816Z,15.29
2023-05-14T07:25:19.289Z,15.35
2023-05-14T07:27:45.710Z,15.41
2023-05-14T07:30:12.270Z,15.42
2023-05-14T07:32:38.720Z,15.55
2023-05-14T07:35:06.174Z,15.67
2023-05-14T07:37:32.813Z,15.82
2023-05-14T07:39:59.278Z,15.88
2023-05-14T07:42:35.739Z,15.99
2023-05-14T07:45:03.556Z,16.01
2023-05-14T07:47:30.064Z,16.13
2023-05-14T07:49:57.318Z,16.22
2023-05-14T07:52:24.397Z,16.33
2023-05-14T07:54:52.061Z,16.48
2023-05-14T07:57:19.703Z,16.51
2023-05-14T07:59:46.733Z,16.64
2023-05-14T08:02:13.995Z,16.73
2023-05-14T08:04:40.488Z,16.80
2023-05-14T08:07:08.533Z,16.88
2023-05-14T08:09:34.970Z,16.76
2023-05-14T08:12:01.546Z,16.70
2023-05-14T08:14:28.532Z,16.74
2023-05-14T08:16:55.047Z,16.75
2023-05-14T08:19:24.366Z,16.71
2023-05-14T08:21:51.419Z,16.76
2023-05-14T08:24:18.980Z,16.85
2023-05-14T08:26:45.476Z,16.98
2023-05-14T08:29:12.941Z,17.05
2023-05-14T08:31:41.204Z,17.13
2023-05-14T08:34:07.613Z,17.27
2023-05-14T08:36:34.073Z,17.34
2023-05-14T08:39:00.425Z,17.36
2023-05-14T08:41:26.794Z,17.40
2023-05-14T08:43:59.250Z,17.48
2023-05-14T08:46:29.738Z,17.52
2023-05-14T08:49:29.623Z,17.56
2023-05-14T08:51:56.201Z,17.61
2023-05-14T08:54:24.683Z,17.63
2023-05-14T08:56:53.182Z,17.67
2023-05-14T08:59:20.501Z,17.76
2023-05-14T09:01:49.255Z,17.96
2023-05-14T09:04:19.497Z,18.07
2023-05-14T09:06:49.980Z,18.00
2023-05-14T09:17:25.364Z,18.29
2023-05-14T09:19:53.237Z,18.40
2023-05-14T09:22:20.896Z,18.40
2023-05-14T09:28:28.458Z,18.70
2023-05-14T09:30:54.942Z,18.83
2023-05-14T09:33:28.553Z,18.82
2023-05-14T09:35:58.793Z,18.92
2023-05-14T09:38:34.653Z,19.17
2023-05-14T09:41:01.139Z,19.36
2023-05-14T09:43:27.636Z,19.37
2023-05-14T09:45:54.067Z,19.46
2023-05-14T09:48:23.139Z,19.58
2023-05-14T09:50:49.832Z,19.73
2023-05-14T09:53:17.675Z,19.80
2023-05-14T09:55:45.451Z,19.83
2023-05-14T09:58:14.248Z,19.89
2023-05-14T10:00:46.092Z,19.95
2023-05-14T10:03:15.571Z,20.07
2023-05-14T10:05:43.200Z,20.13
2023-05-14T10:08:30.126Z,20.25
2023-05-14T10:10:59.394Z,20.45
2023-05-14T10:13:31.502Z,20.54
2023-05-14T10:16:21.839Z,20.57
2023-05-14T10:18:52.658Z,20.60
2023-05-14T10:21:21.803Z,20.75
2023-05-14T10:23:50.300Z,20.85
2023-05-14T10:26:17.093Z,21.01
2023-05-14T10:28:44.188Z,21.02
2023-05-14T10:31:10.726Z,21.14
2023-05-14T10:33:50.788Z,21.14
2023-05-14T10:36:18.532Z,21.25
2023-05-14T10:38:45.469Z,21.37
2023-05-14T10:41:15.063Z,21.45
2023-05-14T10:43:44.452Z,21.40
2023-05-14T10:46:13.348Z,21.52
2023-05-14T10:48:42.333Z,21.50
2023-05-14T10:51:10.709Z,21.59
2023-05-14T10:53:39.636Z,21.65
2023-05-14T10:56:11.600Z,21.77
2023-05-14T10:58:42.133Z,21.89
2023-05-14T11:01:09.062Z,21.97
2023-05-14T11:03:41.302Z,22.08
2023-05-14T11:06:08.839Z,22.21
2023-05-14T11:08:41.656Z,22.26
2023-05-14T11:11:09.274Z,22.33
2023-05-14T11:13:36.029Z,22.54
2023-05-14T11:16:15.143Z,22.71
2023-05-14T11:18:48.231Z,22.75
2023-05-14T11:21:17.574Z,22.92
2023-05-14T11:23:46.850Z,23.16
2023-05-14T11:26:13.288Z,23.33
2023-05-14T11:28:42.402Z,23.46
2023-05-14T11:31:10.181Z,23.58
2023-05-14T11:33:36.666Z,23.52
2023-05-14T11:36:04.274Z,23.58
2023-05-14T11:38:30.845Z,23.60
2023-05-14T11:40:59.586Z,23.62
2023-05-14T11:43:30.273Z,23.46
2023-05-14T11:45:59.831Z,23.51
2023-05-14T11:48:26.422Z,23.52
2023-05-14T11:50:53.078Z,23.43
2023-05-14T11:53:24.483Z,23.43
2023-05-14T11:55:51.075Z,23.40
2023-05-14T11:58:18.879Z,23.39
2023-05-14T12:00:46.021Z,23.38
2023-05-14T12:03:12.632Z,23.50
2023-05-14T12:05:39.522Z,23.58
2023-05-14T12:08:23.093Z,23.53
2023-05-14T12:10:49.491Z,23.61
2023-05-14T12:13:17.545Z,23.93
2023-05-14T12:15:53.640Z,23.72
2023-05-14T12:18:24.590Z,23.63
2023-05-14T12:20:52.122Z,23.74
2023-05-14T12:23:31.424Z,23.69
2023-05-14T12:26:10.143Z,23.50
2023-05-14T12:28:45.728Z,23.59
2023-05-14T12:31:12.346Z,23.72
2023-05-14T12:33:38.837Z,23.60
2023-05-14T12:36:21.208Z,23.82
2023-05-14T12:38:49.908Z,23.89
2023-05-14T12:41:20.840Z,23.98
2023-05-14T12:43:48.760Z,24.15
2023-05-14T12:46:15.473Z,24.37
2023-05-14T12:48:41.989Z,24.61
2023-05-14T12:51:08.519Z,24.47
2023-05-14T12:53:35.268Z,24.58
2023-05-14T12:56:01.813Z,24.81
2023-05-14T12:58:30.545Z,24.66
2023-05-14T13:00:57.060Z,24.55
2023-05-14T13:03:23.905Z,24.54
2023-05-14T13:05:52.302Z,24.55
2023-05-14T13:08:21.435Z,24.41
2023-05-14T13:10:48.149Z,24.25
2023-05-14T13:13:17.365Z,24.40
2023-05-14T13:15:46.597Z,24.44
2023-05-14T13:18:13.988Z,24.78
2023-05-14T13:20:42.980Z,24.67
2023-05-14T13:23:09.790Z,24.52
2023-05-14T13:25:36.182Z,24.75
2023-05-14T13:28:02.823Z,24.92
2023-05-14T13:30:29.768Z,25.01
2023-05-14T13:32:56.260Z,24.91
2023-05-14T13:35:22.885Z,24.94
2023-05-14T13:37:49.719Z,24.85
2023-05-14T13:40:16.733Z,24.83
2023-05-14T13:42:43.283Z,24.81
2023-05-14T13:45:10.233Z,24.61
2023-05-14T13:47:36.848Z,24.78
2023-05-14T13:50:03.457Z,24.90
2023-05-14T13:52:29.963Z,25.07
2023-05-14T13:54:56.829Z,25.31
2023-05-14T13:57:23.336Z,25.45
2023-05-14T13:59:49.964Z,25.46
2023-05-14T14:02:16.440Z,25.34
2023-05-14T14:04:44.890Z,25.48
2023-05-14T14:07:11.421Z,25.45
2023-05-14T14:09:38.084Z,25.27
2023-05-14T14:12:05.110Z,25.30
2023-05-14T14:14:34.978Z,25.34
2023-05-14T14:17:01.393Z,25.38
2023-05-14T14:19:27.882Z,25.34
2023-05-14T14:21:54.352Z,25.42
2023-05-14T14:24:20.892Z,25.34
2023-05-14T14:26:48.868Z,25.34
2023-05-14T14:29:15.661Z,25.20
2023-05-14T14:31:43.540Z,25.18
2023-05-14T14:34:10.109Z,25.21
2023-05-14T14:36:38.704Z,25.18
2023-05-14T14:39:05.252Z,25.20
2023-05-14T14:41:31.676Z,25.44
2023-05-14T14:43:58.438Z,25.47
2023-05-14T14:46:25.018Z,25.45
2023-05-14T14:48:51.743Z,25.59
2023-05-14T14:51:18.377Z,25.78
2023-05-14T14:53:44.794Z,25.74
2023-05-14T14:56:11.193Z,25.74
2023-05-14T14:58:38.316Z,25.69
2023-05-14T15:01:04.990Z,25.81
2023-05-14T15:03:31.731Z,25.83
2023-05-14T15:05:58.635Z,25.82
2023-05-14T15:08:29.551Z,25.73
2023-05-14T15:10:56.821Z,25.71
2023-05-14T15:13:24.013Z,25.58
2023-05-14T15:15:53.514Z,25.41
2023-05-14T15:18:20.596Z,25.26
2023-05-14T15:20:47.162Z,25.28
2023-05-14T15:23:16.269Z,25.27
2023-05-14T15:25:42.779Z,25.13
2023-05-14T15:28:09.463Z,25.02
2023-05-14T15:30:36.022Z,25.11
2023-05-14T15:33:02.726Z,25.16
2023-05-14T15:35:29.317Z,25.06
2023-05-14T15:37:59.402Z,25.02
2023-05-14T15:40:27.404Z,25.02
2023-05-14T15:42:56.529Z,24.86
2023-05-14T15:45:23.203Z,24.67
2023-05-14T15:47:51.907Z,24.45
2023-05-14T15:50:18.691Z,24.34
2023-05-14T15:52:45.419Z,24.31
2023-05-14T15:55:11.910Z,24.11
2023-05-14T15:57:38.655Z,23.77
2023-05-14T16:00:10.408Z,23.56
2023-05-14T16:02:40.136Z,23.53
2023-05-14T16:05:08.320Z,23.46
2023-05-14T16:07:35.185Z,23.29
2023-05-14T16:10:01.640Z,23.22
2023-05-14T16:12:28.146Z,23.24
2023-05-14T16:14:54.696Z,23.04
2023-05-14T16:17:21.371Z,22.94
2023-05-14T16:19:47.883Z,22.87
2023-05-14T16:22:14.403Z,22.83
2023-05-14T16:24:41.437Z,22.67
2023-05-14T16:27:07.955Z,22.68
2023-05-14T16:29:34.494Z,22.57
2023-05-14T16:32:01.063Z,22.27
2023-05-14T16:34:27.916Z,22.21
2023-05-14T16:36:54.364Z,22.25
2023-05-14T16:39:21.143Z,22.20
2023-05-14T16:41:47.549Z,22.17
2023-05-14T16:44:13.938Z,22.08
2023-05-14T16:46:40.650Z,22.04
2023-05-14T16:49:07.131Z,22.01
2023-05-14T16:51:33.646Z,21.89
2023-05-14T16:54:00.300Z,21.72
2023-05-14T16:56:27.023Z,21.66
2023-05-14T16:58:53.645Z,21.45
2023-05-14T17:01:20.144Z,21.32
2023-05-14T17:03:46.866Z,21.13
2023-05-14T17:06:13.438Z,21.02
2023-05-14T17:08:39.972Z,20.96
2023-05-14T17:11:06.518Z,20.90
2023-05-14T17:13:33.494Z,20.78
2023-05-14T17:16:01.190Z,20.73
2023-05-14T17:18:28.004Z,20.63
2023-05-14T17:20:56.839Z,20.51
2023-05-14T17:23:23.421Z,20.33
2023-05-14T17:25:50.138Z,20.10
2023-05-14T17:28:16.719Z,19.96
2023-05-14T17:30:50.665Z,19.93
2023-05-14T17:33:17.327Z,19.71
2023-05-14T17:35:45.821Z,19.57
2023-05-14T17:38:12.430Z,19.26
2023-05-14T17:40:40.838Z,18.97
2023-05-14T17:43:08.581Z,18.82
2023-05-14T17:45:46.457Z,18.63
2023-05-14T17:48:20.340Z,18.56
2023-05-14T17:50:46.919Z,18.53
2023-05-14T17:53:13.605Z,18.44
2023-05-14T17:55:43.505Z,18.41
2023-05-14T17:58:15.322Z,18.25
2023-05-14T18:00:42.342Z,18.12
2023-05-14T18:03:09.122Z,18.09
2023-05-14T18:05:36.300Z,18.02
2023-05-14T18:08:03.254Z,17.86
2023-05-14T18:10:29.842Z,17.67
2023-05-14T18:12:56.665Z,17.53
2023-05-14T18:15:25.544Z,17.48
2023-05-14T18:17:53.079Z,17.36
2023-05-14T18:20:19.975Z,17.25
2023-05-14T18:22:46.483Z,17.32
2023-05-14T18:25:13.647Z,17.30
2023-05-14T18:27:44.421Z,17.33
2023-05-14T18:30:15.009Z,17.19
2023-05-14T18:32:43.626Z,17.13
2023-05-14T18:35:17.774Z,17.04
2023-05-14T18:37:44.346Z,16.93
2023-05-14T18:40:15.563Z,16.91
2023-05-14T18:42:43.427Z,16.80
2023-05-14T18:45:10.473Z,16.70
2023-05-14T18:47:37.255Z,16.69
2023-05-14T18:50:04.841Z,16.68
2023-05-14T18:52:32.317Z,16.64
2023-05-14T18:54:58.746Z,16.60
2023-05-14T18:57:27.209Z,16.57
2023-05-14T18:59:53.645Z,16.52
2023-05-14T19:02:20.233Z,16.41
2023-05-14T19:07:16.257Z,16.38
2023-05-14T19:09:45.667Z,16.32
2023-05-14T19:12:12.507Z,16.33
2023-05-14T19:14:38.957Z,16.31
2023-05-14T19:17:05.774Z,16.27
2023-05-14T19:19:32.585Z,16.14
2023-05-14T19:21:59.155Z,16.01
2023-05-14T19:24:25.840Z,15.91
2023-05-14T19:26:52.618Z,15.82
2023-05-14T19:29:19.303Z,15.71
2023-05-14T19:31:45.959Z,15.68
2023-05-14T19:34:12.479Z,15.64
2023-05-14T19:36:38.930Z,15.58
2023-05-14T19:39:05.992Z,15.43
2023-05-14T19:41:32.461Z,15.35
2023-05-14T19:43:58.908Z,15.30
2023-05-14T19:46:26.031Z,15.20
2023-05-14T19:48:52.895Z,15.13
2023-05-14T19:51:19.404Z,15.06
2023-05-14T19:53:45.882Z,14.98
2023-05-14T19:56:12.348Z,14.96
2023-05-14T19:58:38.978Z,14.90
2023-05-14T20:01:05.537Z,14.87
2023-05-14T20:03:32.205Z,14.77
2023-05-14T20:05:58.961Z,14.74
2023-05-14T20:08:25.491Z,14.69
2023-05-14T20:10:52.089Z,14.62
2023-05-14T20:13:18.568Z,14.62
2023-05-14T20:15:45.252Z,14.58
2023-05-14T20:18:12.175Z,14.59
2023-05-14T20:20:39.920Z,14.55
2023-05-14T20:23:09.001Z,14.48
2023-05-14T20:25:35.458Z,14.41
2023-05-14T20:28:02.051Z,14.37
2023-05-14T20:30:28.531Z,14.33
2023-05-14T20:32:55.090Z,14.33
2023-05-14T20:35:21.567Z,14.30
2023-05-14T20:37:49.571Z,14.29
2023-05-14T20:40:16.172Z,14.27
2023-05-14T20:42:42.841Z,14.24
2023-05-14T20:45:10.406Z,14.21
2023-05-14T20:47:37.094Z,14.20
2023-05-14T20:50:04.659Z,14.16
2023-05-14T20:52:31.149Z,14.16
2023-05-14T20:55:00.033Z,14.15
2023-05-14T20:57:28.352Z,14.16
2023-05-14T20:59:54.798Z,14.16
2023-05-14T21:02:21.476Z,14.15
2023-05-14T21:04:50.746Z,14.13
2023-05-14T21:07:17.216Z,14.15
2023-05-14T21:09:46.508Z,14.16
2023-05-14T21:12:12.978Z,14.08
2023-05-14T21:14:39.493Z,14.05
2023-05-14T21:17:05.954Z,14.04
2023-05-14T21:19:32.524Z,14.05
2023-05-14T21:21:58.911Z,14.03
2023-05-14T21:24:25.440Z,13.96
2023-05-14T21:26:53.577Z,13.97
2023-05-14T21:29:20.334Z,13.97
2023-05-14T21:31:47.082Z,13.95
2023-05-14T21:34:13.543Z,13.92
2023-05-14T21:36:39.991Z,13.88
2023-05-14T21:39:06.684Z,13.80
2023-05-14T21:41:33.219Z,13.70
2023-05-14T21:43:59.650Z,13.67
2023-05-14T21:46:26.494Z,13.62
2023-05-14T21:48:53.258Z,13.59
2023-05-14T21:51:19.696Z,13.60
2023-05-14T21:53:48.260Z,13.61
2023-05-14T21:56:18.276Z,13.61
2023-05-14T21:58:44.969Z,13.59
2023-05-14T22:01:11.628Z,13.60
2023-05-14T22:03:38.301Z,13.57
2023-05-14T22:06:05.317Z,13.47
2023-05-14T22:08:32.215Z,13.44
2023-05-14T22:10:58.716Z,13.39
2023-05-14T22:13:25.332Z,13.38
2023-05-14T22:16:01.338Z,13.37
2023-05-14T22:18:36.543Z,13.34
2023-05-14T22:21:03.215Z,13.33
2023-05-14T22:23:29.685Z,13.34
2023-05-14T22:25:56.184Z,13.36
2023-05-14T22:28:22.745Z,13.30
2023-05-14T22:30:49.346Z,13.26
2023-05-14T22:33:15.745Z,13.19
2023-05-14T22:35:42.564Z,13.20
2023-05-14T22:38:09.196Z,13.18
2023-05-14T22:40:36.474Z,13.19
2023-05-14T22:43:02.938Z,13.19
2023-05-14T22:45:29.350Z,13.09
2023-05-14T22:47:56.134Z,12.96
2023-05-14T22:50:22.576Z,12.95
2023-05-14T22:52:48.957Z,12.91
2023-05-14T22:55:15.421Z,12.87
2023-05-14T22:57:41.927Z,12.80
2023-05-14T23:00:09.049Z,12.76
2023-05-14T23:02:35.699Z,12.74
2023-05-14T23:05:02.220Z,12.74
2023-05-14T23:07:28.769Z,12.71
2023-05-14T23:09:55.267Z,12.71
2023-05-14T23:12:21.724Z,12.71
2023-05-14T23:14:48.190Z,12.73
2023-05-14T23:17:17.464Z,12.74
2023-05-14T23:19:43.971Z,12.73
2023-05-14T23:22:10.418Z,12.73
2023-05-14T23:24:36.891Z,12.70
2023-05-14T23:27:03.631Z,12.68
2023-05-14T23:29:30.381Z,12.71
2023-05-14T23:31:57.060Z,12.73
2023-05-14T23:34:24.821Z,12.76
2023-05-14T23:36:51.449Z,12.77
2023-05-14T23:39:18.164Z,12.77
2023-05-14T23:41:44.542Z,12.76
2023-05-14T23:44:11.000Z,12.78
2023-05-14T23:46:37.510Z,12.75
2023-05-14T23:49:04.051Z,12.74
2023-05-14T23:51:30.624Z,12.69
2023-05-14T23:53:58.677Z,12.69
2023-05-14T23:56:26.257Z,12.70
2023-05-14T23:58:53.039Z,12.70
